Time;durP1;ratioP1;P1;durP2;ratioP2;P2;SDS_P1;SDS_P2;PMS_P1;PMS_P2;Temp;Humidity;BMP_temperature;BMP_pressure;BME280_temperature;BME280_humidity;BME280_pressure;Samples;Min_cycle;Max_cycle;Signal;HPM_P1;HPM_P2
2023/09/20 00:00:07;;;;;;;2.22;1.33;;;;;;;;;;4976265;28;20454;-75
2023/09/20 00:02:33;;;;;;;1.30;1.20;;;;;;;;;;5042049;28;20043;-78
2023/09/20 00:05:00;;;;;;;1.75;1.60;;;;;;;;;;4975827;28;20031;-78
2023/09/20 00:07:25;;;;;;;1.42;1.33;;;;;;;;;;5042771;28;20065;-79
2023/09/20 00:09:50;;;;;;;2.13;1.40;;;;;;;;;;4974349;28;20035;-78
2023/09/20 00:12:16;;;;;;;1.27;1.23;;;;;;;;;;4976137;28;20022;-78
2023/09/20 00:14:41;;;;;;;2.70;1.40;;;;;;;;;;5043481;28;20618;-79
2023/09/20 00:17:06;;;;;;;1.67;1.38;;;;;;;;;;4974954;28;20046;-77
2023/09/20 00:19:32;;;;;;;1.48;1.38;;;;;;;;;;4974964;28;21704;-78
2023/09/20 00:21:57;;;;;;;1.33;1.30;;;;;;;;;;5041963;28;20049;-79
2023/09/20 00:24:23;;;;;;;3.00;1.60;;;;;;;;;;5042456;28;20039;-77
2023/09/20 00:26:48;;;;;;;1.50;1.38;;;;;;;;;;4976355;28;20098;-79
2023/09/20 00:29:13;;;;;;;1.50;1.40;;;;;;;;;;4976405;28;20042;-78
2023/09/20 00:31:39;;;;;;;1.20;1.20;;;;;;;;;;4976018;28;20041;-77
2023/09/20 00:34:04;;;;;;;3.30;1.50;;;;;;;;;;4975345;28;20038;-76
2023/09/20 00:36:30;;;;;;;2.20;1.45;;;;;;;;;;4975251;28;20041;-77
2023/09/20 00:38:57;;;;;;;5.30;1.45;;;;;;;;;;4977090;28;20406;-77
2023/09/20 00:41:23;;;;;;;5.93;1.52;;;;;;;;;;4976530;28;20043;-79
2023/09/20 00:43:52;;;;;;;3.28;1.80;;;;;;;;;;4978120;28;20072;-79
2023/09/20 00:46:19;;;;;;;1.60;1.50;;;;;;;;;;5043688;28;20027;-78
2023/09/20 00:48:45;;;;;;;1.80;1.70;;;;;;;;;;5043728;28;20041;-78
2023/09/20 00:51:10;;;;;;;3.35;1.40;;;;;;;;;;5043026;28;20027;-78
2023/09/20 00:53:37;;;;;;;1.70;1.60;;;;;;;;;;4976585;28;20118;-78
2023/09/20 00:56:04;;;;;;;2.05;1.67;;;;;;;;;;5041964;28;20035;-78
2023/09/20 00:58:30;;;;;;;1.50;1.40;;;;;;;;;;4975456;28;20045;-78
2023/09/20 01:00:56;;;;;;;3.15;1.35;;;;;;;;;;5041894;28;20433;-78
2023/09/20 01:03:24;;;;;;;4.57;1.50;;;;;;;;;;4976369;28;20105;-77
2023/09/20 01:05:50;;;;;;;2.35;1.65;;;;;;;;;;4976274;28;20027;-78
2023/09/20 01:08:20;;;;;;;2.33;1.70;;;;;;;;;;5042167;28;20042;-77
2023/09/20 01:10:46;;;;;;;2.05;1.67;;;;;;;;;;5042273;28;20061;-79
2023/09/20 01:13:18;;;;;;;1.50;1.40;;;;;;;;;;5041744;28;20039;-78
2023/09/20 01:15:44;;;;;;;4.15;1.70;;;;;;;;;;4975706;28;20098;-78
2023/09/20 01:18:10;;;;;;;3.03;1.55;;;;;;;;;;4974946;28;20382;-77
2023/09/20 01:20:38;;;;;;;1.95;1.50;;;;;;;;;;5043447;28;20034;-78
2023/09/20 01:23:04;;;;;;;4.78;1.70;;;;;;;;;;5042177;28;20561;-78
2023/09/20 01:25:31;;;;;;;1.70;1.60;;;;;;;;;;5041864;28;20102;-77
2023/09/20 01:27:59;;;;;;;1.80;1.50;;;;;;;;;;5041862;28;20043;-78
2023/09/20 01:30:26;;;;;;;1.90;1.70;;;;;;;;;;5041498;28;20042;-78
2023/09/20 01:32:53;;;;;;;2.00;1.70;;;;;;;;;;5041674;28;20445;-78
2023/09/20 01:35:19;;;;;;;1.90;1.70;;;;;;;;;;5038654;28;20051;-78
2023/09/20 01:37:45;;;;;;;4.72;1.77;;;;;;;;;;4972272;28;20035;-77
2023/09/20 01:40:18;;;;;;;2.72;1.80;;;;;;;;;;4972274;28;20038;-78
2023/09/20 01:42:44;;;;;;;2.20;2.00;;;;;;;;;;4972221;28;20057;-78
2023/09/20 01:45:20;;;;;;;3.78;2.15;;;;;;;;;;5038432;28;20018;-77
2023/09/20 01:47:49;;;;;;;2.05;1.90;;;;;;;;;;5039260;28;20278;-77
2023/09/20 01:50:25;;;;;;;2.47;2.28;;;;;;;;;;4971600;28;20031;-77
2023/09/20 01:52:53;;;;;;;2.22;2.03;;;;;;;;;;4974637;28;20068;-77
2023/09/20 01:55:22;;;;;;;4.03;2.22;;;;;;;;;;4974822;28;20035;-77
2023/09/20 01:57:56;;;;;;;2.75;1.90;;;;;;;;;;4975381;28;20235;-78
2023/09/20 02:00:28;;;;;;;2.78;2.10;;;;;;;;;;4975252;28;20510;-77
2023/09/20 02:02:55;;;;;;;4.13;1.92;;;;;;;;;;4975308;28;20026;-77
2023/09/20 02:05:23;;;;;;;1.83;1.73;;;;;;;;;;5042088;28;20042;-78
2023/09/20 02:07:50;;;;;;;4.70;2.20;;;;;;;;;;5042685;28;20262;-78
2023/09/20 02:10:16;;;;;;;2.28;2.10;;;;;;;;;;4976175;28;20125;-78
2023/09/20 02:12:51;;;;;;;5.18;1.70;;;;;;;;;;5043305;28;20046;-78
2023/09/20 02:15:17;;;;;;;3.88;1.77;;;;;;;;;;5044245;28;20034;-76
2023/09/20 02:17:44;;;;;;;8.77;2.65;;;;;;;;;;5043179;28;20490;-79
2023/09/20 02:20:11;;;;;;;4.25;2.05;;;;;;;;;;4975613;28;20498;-78
2023/09/20 02:22:40;;;;;;;2.00;1.90;;;;;;;;;;4974654;28;20223;-78
2023/09/20 02:25:12;;;;;;;4.85;2.30;;;;;;;;;;5042266;28;20043;-78
2023/09/20 02:27:42;;;;;;;3.75;2.42;;;;;;;;;;5041791;28;20109;-77
2023/09/20 02:30:11;;;;;;;6.55;2.90;;;;;;;;;;4975333;28;20045;-78
2023/09/20 02:32:36;;;;;;;9.13;2.72;;;;;;;;;;5041933;28;20560;-77
2023/09/20 02:35:04;;;;;;;3.47;2.72;;;;;;;;;;4974855;28;20130;-77
2023/09/20 02:37:30;;;;;;;2.63;2.17;;;;;;;;;;4974072;28;20039;-75
2023/09/20 02:39:56;;;;;;;2.50;2.30;;;;;;;;;;4973958;28;20035;-77
2023/09/20 02:42:22;;;;;;;3.60;2.35;;;;;;;;;;4975141;28;20479;-77
2023/09/20 02:44:51;;;;;;;8.38;2.20;;;;;;;;;;5043092;28;20037;-78
2023/09/20 02:47:18;;;;;;;4.53;2.33;;;;;;;;;;5041995;28;20097;-77
2023/09/20 02:49:44;;;;;;;2.30;2.10;;;;;;;;;;5043148;28;20039;-78
2023/09/20 02:52:09;;;;;;;2.88;1.80;;;;;;;;;;4975888;28;20142;-78
2023/09/20 02:54:35;;;;;;;3.50;1.85;;;;;;;;;;5043101;28;20094;-78
2023/09/20 02:57:00;;;;;;;2.05;1.90;;;;;;;;;;4976863;28;20034;-77
2023/09/20 02:59:25;;;;;;;5.70;2.10;;;;;;;;;;5043018;28;20045;-78
2023/09/20 03:01:51;;;;;;;5.57;2.10;;;;;;;;;;5042219;28;20084;-77
2023/09/20 03:04:16;;;;;;;1.83;1.73;;;;;;;;;;5042758;28;20114;-77
2023/09/20 03:06:44;;;;;;;1.73;1.63;;;;;;;;;;4975354;28;20363;-78
2023/09/20 03:09:10;;;;;;;1.75;1.65;;;;;;;;;;4974867;28;20027;-78
2023/09/20 03:11:37;;;;;;;3.78;1.80;;;;;;;;;;5042193;28;20458;-78
2023/09/20 03:14:03;;;;;;;7.35;2.45;;;;;;;;;;5042437;28;20039;-77
2023/09/20 03:16:28;;;;;;;2.38;2.17;;;;;;;;;;4976267;28;20035;-78
2023/09/20 03:18:55;;;;;;;3.25;1.75;;;;;;;;;;5042524;28;20406;-77
2023/09/20 03:21:20;;;;;;;1.90;1.70;;;;;;;;;;5051320;28;20030;-78
2023/09/20 03:23:45;;;;;;;2.00;1.90;;;;;;;;;;4982187;28;20030;-79
2023/09/20 03:26:11;;;;;;;2.22;2.03;;;;;;;;;;5054324;28;20047;-78
2023/09/20 03:28:36;;;;;;;2.80;2.00;;;;;;;;;;4987455;28;20037;-78
2023/09/20 03:31:10;;;;;;;1.85;1.75;;;;;;;;;;4985505;28;20038;-78
2023/09/20 03:33:36;;;;;;;1.77;1.55;;;;;;;;;;5054694;28;20031;-78
2023/09/20 03:36:04;;;;;;;2.15;2.00;;;;;;;;;;4985309;28;20025;-79
2023/09/20 03:38:29;;;;;;;3.75;2.00;;;;;;;;;;4985974;28;20050;-79
2023/09/20 03:40:54;;;;;;;5.25;1.75;;;;;;;;;;5051446;28;20038;-78
2023/09/20 03:43:20;;;;;;;2.20;2.05;;;;;;;;;;4986456;28;20039;-78
2023/09/20 03:45:45;;;;;;;4.47;1.90;;;;;;;;;;5053772;28;20049;-78
2023/09/20 03:48:10;;;;;;;2.85;1.88;;;;;;;;;;4986642;28;20052;-78
2023/09/20 03:50:38;;;;;;;1.67;1.58;;;;;;;;;;4985087;28;20023;-78
2023/09/20 03:53:04;;;;;;;2.20;2.00;;;;;;;;;;5050698;28;20027;-78
2023/09/20 03:55:30;;;;;;;3.45;2.15;;;;;;;;;;4982277;28;20046;-79
2023/09/20 03:57:56;;;;;;;7.15;2.13;;;;;;;;;;5071363;28;20038;-78
2023/09/20 04:00:29;;;;;;;2.08;1.75;;;;;;;;;;4983216;28;20087;-77
2023/09/20 04:02:55;;;;;;;3.90;2.00;;;;;;;;;;4985795;28;20026;-78
2023/09/20 04:05:20;;;;;;;2.40;2.17;;;;;;;;;;5068636;28;20050;-78
2023/09/20 04:07:47;;;;;;;3.80;2.42;;;;;;;;;;4989151;28;20102;-78
2023/09/20 04:10:15;;;;;;;4.35;2.00;;;;;;;;;;5055684;28;20121;-77
2023/09/20 04:12:40;;;;;;;1.50;1.40;;;;;;;;;;5052124;28;20514;-78
2023/09/20 04:15:07;;;;;;;1.77;1.60;;;;;;;;;;5053532;28;20026;-78
2023/09/20 04:17:34;;;;;;;2.65;1.73;;;;;;;;;;4984529;28;20421;-78
2023/09/20 04:20:00;;;;;;;3.85;1.60;;;;;;;;;;4985602;28;20058;-78
2023/09/20 04:22:26;;;;;;;1.83;1.70;;;;;;;;;;5065848;28;20034;-78
2023/09/20 04:24:51;;;;;;;2.90;1.85;;;;;;;;;;4985121;28;20067;-77
2023/09/20 04:27:16;;;;;;;2.22;2.13;;;;;;;;;;4982500;28;20056;-78
2023/09/20 04:29:42;;;;;;;3.15;1.67;;;;;;;;;;4982797;28;20389;-78
2023/09/20 04:32:08;;;;;;;2.17;1.90;;;;;;;;;;4984060;28;20046;-78
2023/09/20 04:34:33;;;;;;;2.33;2.15;;;;;;;;;;4982965;28;20990;-78
2023/09/20 04:36:59;;;;;;;5.88;2.00;;;;;;;;;;4983580;28;20106;-77
2023/09/20 04:39:25;;;;;;;2.10;1.90;;;;;;;;;;5070637;28;20121;-78
2023/09/20 04:41:51;;;;;;;3.80;2.08;;;;;;;;;;5049360;28;20026;-78
2023/09/20 04:44:16;;;;;;;2.28;2.08;;;;;;;;;;5053637;28;20490;-78
2023/09/20 04:46:42;;;;;;;6.50;2.47;;;;;;;;;;5048324;28;20063;-78
2023/09/20 04:49:10;;;;;;;5.40;2.42;;;;;;;;;;4980927;28;20053;-77
2023/09/20 04:51:37;;;;;;;6.57;2.50;;;;;;;;;;4974651;28;20125;-78
2023/09/20 04:54:04;;;;;;;2.72;2.45;;;;;;;;;;5052508;28;20545;-78
2023/09/20 04:56:30;;;;;;;2.92;2.45;;;;;;;;;;4979648;28;20057;-78
2023/09/20 04:58:57;;;;;;;4.40;2.70;;;;;;;;;;4978707;28;20035;-78
2023/09/20 05:01:23;;;;;;;5.53;2.50;;;;;;;;;;5065489;28;20125;-77
2023/09/20 05:03:50;;;;;;;2.63;2.42;;;;;;;;;;4981168;28;20040;-78
2023/09/20 05:06:18;;;;;;;4.45;2.40;;;;;;;;;;4981283;28;20041;-80
2023/09/20 05:08:44;;;;;;;2.42;2.00;;;;;;;;;;4985929;28;20561;-78
2023/09/20 05:11:13;;;;;;;43.28;3.58;;;;;;;;;;4982139;28;20038;-77
2023/09/20 05:13:40;;;;;;;2.80;2.22;;;;;;;;;;5042179;28;20125;-78
2023/09/20 05:16:05;;;;;;;2.58;2.22;;;;;;;;;;5045628;28;20708;-78
2023/09/20 05:18:30;;;;;;;3.20;2.92;;;;;;;;;;4980694;28;20123;-78
2023/09/20 05:20:56;;;;;;;2.90;2.42;;;;;;;;;;5049544;28;20111;-78
2023/09/20 05:23:21;;;;;;;7.22;2.90;;;;;;;;;;5043626;28;20074;-78
2023/09/20 05:25:48;;;;;;;2.53;2.30;;;;;;;;;;5064337;28;20132;-79
2023/09/20 05:28:15;;;;;;;5.18;2.65;;;;;;;;;;4982739;28;20034;-78
2023/09/20 05:30:41;;;;;;;6.85;4.50;;;;;;;;;;4983707;28;20046;-78
2023/09/20 05:33:07;;;;;;;5.28;4.00;;;;;;;;;;4983873;28;20072;-78
2023/09/20 05:35:32;;;;;;;4.78;2.97;;;;;;;;;;5048980;28;20129;-79
2023/09/20 05:37:59;;;;;;;8.48;2.60;;;;;;;;;;5053150;28;20038;-78
2023/09/20 05:40:27;;;;;;;2.40;2.20;;;;;;;;;;5052675;28;20027;-79
2023/09/20 05:42:53;;;;;;;1.60;1.50;;;;;;;;;;4991072;28;20407;-78
2023/09/20 05:45:23;;;;;;;1.58;1.48;;;;;;;;;;5045442;28;20025;-78
2023/09/20 05:47:49;;;;;;;1.73;1.63;;;;;;;;;;4983911;28;20015;-78
2023/09/20 05:50:15;;;;;;;1.75;1.65;;;;;;;;;;4982194;28;20027;-79
2023/09/20 05:52:43;;;;;;;2.08;1.90;;;;;;;;;;5048706;28;20039;-79
2023/09/20 05:55:11;;;;;;;3.30;1.77;;;;;;;;;;4982997;28;20045;-78
2023/09/20 05:57:37;;;;;;;1.70;1.55;;;;;;;;;;4983156;28;20498;-78
2023/09/20 06:00:04;;;;;;;1.30;1.20;;;;;;;;;;4982998;28;20060;-79
2023/09/20 06:02:29;;;;;;;2.25;1.65;;;;;;;;;;5047509;28;20046;-79
2023/09/20 06:04:54;;;;;;;3.55;1.40;;;;;;;;;;5051013;28;20110;-79
2023/09/20 06:07:20;;;;;;;2.75;1.40;;;;;;;;;;5052280;28;20062;-80
2023/09/20 06:09:45;;;;;;;7.93;1.45;;;;;;;;;;4983930;28;20125;-79
2023/09/20 06:12:10;;;;;;;2.17;1.05;;;;;;;;;;4981657;28;20041;-79
2023/09/20 06:14:36;;;;;;;6.60;1.25;;;;;;;;;;5040201;28;20034;-79
2023/09/20 06:17:02;;;;;;;1.48;1.38;;;;;;;;;;4979083;28;20035;-79
2023/09/20 06:19:30;;;;;;;4.28;1.20;;;;;;;;;;5046582;28;20095;-79
2023/09/20 06:21:56;;;;;;;1.35;1.25;;;;;;;;;;4982086;28;20052;-79
2023/09/20 06:24:21;;;;;;;3.67;1.83;;;;;;;;;;4976169;28;20408;-79
2023/09/20 06:26:46;;;;;;;2.35;1.30;;;;;;;;;;4982207;28;20026;-79
2023/09/20 06:29:13;;;;;;;1.88;1.10;;;;;;;;;;4983799;28;20094;-79
2023/09/20 06:31:38;;;;;;;4.60;1.15;;;;;;;;;;4980761;28;20070;-79
2023/09/20 06:34:04;;;;;;;2.50;1.30;;;;;;;;;;4985129;28;20042;-79
2023/09/20 06:36:30;;;;;;;2.70;1.30;;;;;;;;;;5050784;28;20040;-79
2023/09/20 06:38:55;;;;;;;2.33;1.00;;;;;;;;;;4985887;28;20072;-79
2023/09/20 06:41:21;;;;;;;2.25;1.35;;;;;;;;;;4985399;28;20038;-79
2023/09/20 06:43:46;;;;;;;1.88;1.48;;;;;;;;;;5049289;28;20050;-78
2023/09/20 06:46:11;;;;;;;6.18;1.10;;;;;;;;;;5052629;28;20046;-78
2023/09/20 06:48:37;;;;;;;2.38;1.30;;;;;;;;;;4984171;28;20030;-78
2023/09/20 06:51:03;;;;;;;6.13;1.45;;;;;;;;;;5033231;28;20061;-77
2023/09/20 06:53:30;;;;;;;2.22;1.33;;;;;;;;;;5062039;28;20018;-78
2023/09/20 06:55:56;;;;;;;1.50;1.40;;;;;;;;;;4982859;28;20064;-78
2023/09/20 06:58:21;;;;;;;1.85;1.23;;;;;;;;;;4986658;28;20042;-77
2023/09/20 07:00:48;;;;;;;1.30;1.20;;;;;;;;;;5049916;28;20041;-78
2023/09/20 07:03:14;;;;;;;1.20;1.10;;;;;;;;;;5048454;28;20038;-78
2023/09/20 07:05:40;;;;;;;1.60;1.50;;;;;;;;;;4981323;28;20382;-78
2023/09/20 07:08:07;;;;;;;3.47;1.42;;;;;;;;;;4985392;28;20066;-77
2023/09/20 07:10:33;;;;;;;1.38;1.27;;;;;;;;;;4984095;28;20048;-78
2023/09/20 07:12:58;;;;;;;1.65;1.40;;;;;;;;;;4982782;28;20034;-78
2023/09/20 07:15:25;;;;;;;1.40;1.30;;;;;;;;;;5046589;28;20066;-77
2023/09/20 07:17:58;;;;;;;1.13;1.10;;;;;;;;;;5049974;28;20081;-78
2023/09/20 07:20:33;;;;;;;3.00;1.50;;;;;;;;;;5046076;28;20061;-77
2023/09/20 07:22:59;;;;;;;1.58;1.48;;;;;;;;;;5065495;28;20287;-78
2023/09/20 07:25:27;;;;;;;3.70;1.73;;;;;;;;;;4981340;28;20042;-77
2023/09/20 07:27:55;;;;;;;3.22;1.50;;;;;;;;;;4974506;28;20049;-77
2023/09/20 07:30:22;;;;;;;2.10;1.70;;;;;;;;;;4977041;28;20111;-77
2023/09/20 07:32:49;;;;;;;2.17;1.45;;;;;;;;;;5050372;28;20038;-78
2023/09/20 07:35:26;;;;;;;1.70;1.60;;;;;;;;;;4982581;28;20042;-77
2023/09/20 07:37:58;;;;;;;2.25;1.40;;;;;;;;;;4980025;28;20035;-76
2023/09/20 07:40:31;;;;;;;1.10;1.10;;;;;;;;;;4983818;28;20043;-77
2023/09/20 07:42:59;;;;;;;1.00;1.00;;;;;;;;;;5045456;28;20066;-78
2023/09/20 07:45:27;;;;;;;1.00;1.00;;;;;;;;;;5042627;28;20038;-77
2023/09/20 07:47:52;;;;;;;2.72;1.50;;;;;;;;;;4980330;28;20068;-78
2023/09/20 07:50:17;;;;;;;3.95;1.10;;;;;;;;;;4985799;28;20046;-77
2023/09/20 07:52:44;;;;;;;1.08;1.02;;;;;;;;;;4980156;28;20034;-78
2023/09/20 07:55:09;;;;;;;1.60;1.00;;;;;;;;;;4982287;28;20130;-76
2023/09/20 07:57:35;;;;;;;1.80;1.10;;;;;;;;;;4976688;28;20110;-76
2023/09/20 08:00:01;;;;;;;2.03;0.95;;;;;;;;;;5047066;28;20540;-77
2023/09/20 08:02:26;;;;;;;1.00;1.00;;;;;;;;;;4983094;28;20042;-76
2023/09/20 08:04:51;;;;;;;0.95;0.95;;;;;;;;;;5054170;28;20031;-76
2023/09/20 08:07:17;;;;;;;1.50;1.40;;;;;;;;;;4984543;28;20506;-75
2023/09/20 08:09:43;;;;;;;2.33;1.30;;;;;;;;;;5045058;28;20057;-77
2023/09/20 08:12:11;;;;;;;0.93;0.93;;;;;;;;;;4984906;28;20031;-76
2023/09/20 08:14:37;;;;;;;2.42;1.23;;;;;;;;;;5042769;28;20113;-76
2023/09/20 08:19:46;;;;;;;9.20;1.33;;;;;;;;;;4981930;28;20654;-77
2023/09/20 08:22:15;;;;;;;1.20;1.10;;;;;;;;;;4983420;28;20082;-78
2023/09/20 09:00:27;;;;;;;1.70;1.35;;;;;;;;;;4991970;28;20073;-78
2023/09/20 09:02:57;;;;;;;1.10;0.88;;;;;;;;;;5045970;28;20046;-77
2023/09/20 09:05:25;;;;;;;2.15;1.20;;;;;;;;;;4981526;28;20038;-78
2023/09/20 09:07:51;;;;;;;1.55;1.23;;;;;;;;;;4976993;28;20101;-78
2023/09/20 09:10:17;;;;;;;1.00;1.00;;;;;;;;;;4979904;28;20054;-78
2023/09/20 09:12:42;;;;;;;1.05;1.00;;;;;;;;;;5061790;28;20529;-78
2023/09/20 09:15:09;;;;;;;0.95;0.95;;;;;;;;;;5048818;28;20024;-78
2023/09/20 09:17:52;;;;;;;3.70;1.27;;;;;;;;;;5051302;28;20563;-77
2023/09/20 09:20:21;;;;;;;1.17;1.05;;;;;;;;;;5070243;22;20141;-74
2023/09/20 09:22:49;;;;;;;1.58;1.20;;;;;;;;;;4980047;28;20468;-74
2023/09/20 09:25:17;;;;;;;1.25;1.15;;;;;;;;;;4978385;28;20341;-73
2023/09/20 09:27:42;;;;;;;1.70;1.20;;;;;;;;;;4985103;28;20038;-73
2023/09/20 09:30:13;;;;;;;2.90;1.30;;;;;;;;;;4982258;28;20315;-74
2023/09/20 09:32:40;;;;;;;1.10;1.10;;;;;;;;;;4983885;28;20433;-74
2023/09/20 09:35:06;;;;;;;1.17;1.10;;;;;;;;;;4983523;28;20548;-74
2023/09/20 09:37:32;;;;;;;1.35;1.05;;;;;;;;;;4981720;28;20436;-74
2023/09/20 09:40:02;;;;;;;1.52;1.17;;;;;;;;;;4983502;28;20042;-74
2023/09/20 09:42:28;;;;;;;2.08;1.08;;;;;;;;;;4988553;28;20037;-74
2023/09/20 09:44:58;;;;;;;1.20;1.10;;;;;;;;;;4982854;28;20043;-74
2023/09/20 09:47:24;;;;;;;6.10;1.77;;;;;;;;;;4989929;28;20026;-74
2023/09/20 09:49:52;;;;;;;1.42;1.27;;;;;;;;;;4993852;28;20034;-74
2023/09/20 09:52:18;;;;;;;1.00;1.00;;;;;;;;;;4993573;28;20030;-74
2023/09/20 09:54:46;;;;;;;1.20;1.20;;;;;;;;;;4994607;28;20038;-74
2023/09/20 09:57:12;;;;;;;1.83;1.27;;;;;;;;;;4983897;28;21252;-74
2023/09/20 09:59:39;;;;;;;1.15;1.05;;;;;;;;;;4989547;28;20018;-74
2023/09/20 10:02:13;;;;;;;1.35;1.20;;;;;;;;;;4965347;28;20027;-74
2023/09/20 10:04:39;;;;;;;2.25;1.63;;;;;;;;;;4983710;28;20070;-74
2023/09/20 10:07:15;;;;;;;2.13;1.20;;;;;;;;;;4984097;28;20065;-74
2023/09/20 10:09:44;;;;;;;3.85;1.63;;;;;;;;;;4983821;28;20046;-74
2023/09/20 10:12:11;;;;;;;1.50;1.40;;;;;;;;;;4983938;28;20023;-74
2023/09/20 10:14:38;;;;;;;1.10;1.08;;;;;;;;;;4987108;28;20026;-74
2023/09/20 10:17:06;;;;;;;2.35;1.20;;;;;;;;;;4986069;28;20034;-74
2023/09/20 10:19:33;;;;;;;1.25;1.00;;;;;;;;;;4987197;28;20030;-74
2023/09/20 10:22:08;;;;;;;1.23;1.13;;;;;;;;;;4978067;28;20042;-74
2023/09/20 10:24:54;;;;;;;2.40;1.20;;;;;;;;;;4985152;28;20066;-74
2023/09/20 10:27:33;;;;;;;1.83;1.23;;;;;;;;;;4987222;28;20042;-74
2023/09/20 10:30:14;;;;;;;4.10;1.20;;;;;;;;;;4996669;28;20486;-74
2023/09/20 10:32:47;;;;;;;2.58;1.42;;;;;;;;;;4995908;28;20398;-74
2023/09/20 10:35:27;;;;;;;1.20;1.10;;;;;;;;;;4968903;28;20034;-74
2023/09/20 10:38:21;;;;;;;6.18;1.60;;;;;;;;;;4984858;28;20525;-74
2023/09/20 10:40:51;;;;;;;1.30;1.30;;;;;;;;;;4988364;28;20035;-74
2023/09/20 10:43:25;;;;;;;2.30;1.30;;;;;;;;;;4986405;28;20096;-74
2023/09/20 10:45:54;;;;;;;1.20;1.15;;;;;;;;;;4988765;28;20046;-74
2023/09/20 10:48:26;;;;;;;1.25;1.20;;;;;;;;;;4986826;28;20542;-74
2023/09/20 10:50:54;;;;;;;3.58;1.20;;;;;;;;;;4971544;28;20026;-74
2023/09/20 10:53:22;;;;;;;2.03;1.40;;;;;;;;;;4987046;28;20034;-74
2023/09/20 10:55:48;;;;;;;5.70;1.25;;;;;;;;;;4985788;28;20038;-74
2023/09/20 10:58:18;;;;;;;3.75;1.38;;;;;;;;;;4995298;28;20028;-74
2023/09/20 11:00:44;;;;;;;1.35;1.33;;;;;;;;;;4995464;28;20042;-74
2023/09/20 11:03:11;;;;;;;1.77;1.23;;;;;;;;;;4986115;28;20084;-74
2023/09/20 11:05:38;;;;;;;2.40;1.17;;;;;;;;;;4986678;28;20106;-74
2023/09/20 11:08:11;;;;;;;2.83;1.30;;;;;;;;;;4992402;28;20038;-74
2023/09/20 11:10:40;;;;;;;1.75;1.30;;;;;;;;;;4984842;28;20516;-74
2023/09/20 11:13:10;;;;;;;1.20;1.10;;;;;;;;;;5000843;28;20488;-74
2023/09/20 11:15:43;;;;;;;1.75;1.00;;;;;;;;;;4990206;28;20121;-74
2023/09/20 11:18:09;;;;;;;1.10;1.00;;;;;;;;;;4994981;28;20024;-74
2023/09/20 11:20:36;;;;;;;3.10;1.23;;;;;;;;;;4990969;28;20050;-74
2023/09/20 11:23:02;;;;;;;6.97;1.30;;;;;;;;;;4985810;28;20042;-74
2023/09/20 11:25:30;;;;;;;1.40;1.30;;;;;;;;;;4985833;28;20034;-74
2023/09/20 11:27:59;;;;;;;1.65;1.30;;;;;;;;;;4985427;28;20066;-74
2023/09/20 11:30:29;;;;;;;1.88;1.30;;;;;;;;;;4974073;28;20042;-74
2023/09/20 11:33:01;;;;;;;3.08;1.35;;;;;;;;;;4968459;28;20084;-74
2023/09/20 11:35:40;;;;;;;1.50;1.02;;;;;;;;;;4985768;28;20042;-74
2023/09/20 11:38:06;;;;;;;1.50;1.40;;;;;;;;;;4990821;28;20042;-74
2023/09/20 11:40:35;;;;;;;1.77;1.27;;;;;;;;;;4985471;28;20303;-74
2023/09/20 11:43:12;;;;;;;1.90;1.27;;;;;;;;;;4985418;28;20047;-74
2023/09/20 11:45:41;;;;;;;1.40;1.17;;;;;;;;;;4988265;28;20047;-74
2023/09/20 11:48:11;;;;;;;1.50;1.17;;;;;;;;;;4974410;28;20034;-74
2023/09/20 11:50:42;;;;;;;1.20;1.10;;;;;;;;;;4988204;28;20019;-74
2023/09/20 11:53:13;;;;;;;1.35;1.10;;;;;;;;;;4987240;28;20121;-74
2023/09/20 11:55:43;;;;;;;1.52;1.27;;;;;;;;;;4986480;28;20134;-74
2023/09/20 11:58:14;;;;;;;2.42;1.48;;;;;;;;;;4982301;28;20401;-74
2023/09/20 12:00:43;;;;;;;1.20;1.10;;;;;;;;;;4974368;28;20614;-74
2023/09/20 12:03:08;;;;;;;2.78;1.35;;;;;;;;;;4967233;28;20139;-74
2023/09/20 12:05:34;;;;;;;1.48;1.15;;;;;;;;;;4985916;28;20341;-74
2023/09/20 12:08:00;;;;;;;2.58;1.10;;;;;;;;;;4997390;28;20030;-74
2023/09/20 12:10:27;;;;;;;1.40;1.30;;;;;;;;;;4986447;28;20050;-74
2023/09/20 12:12:53;;;;;;;6.40;1.33;;;;;;;;;;4999174;28;20511;-73
2023/09/20 12:15:21;;;;;;;1.50;1.38;;;;;;;;;;4997961;28;20085;-73
2023/09/20 12:17:47;;;;;;;1.10;1.10;;;;;;;;;;4985632;28;20034;-73
2023/09/20 12:20:15;;;;;;;1.58;1.20;;;;;;;;;;4984535;28;20121;-73
2023/09/20 12:22:43;;;;;;;1.58;1.20;;;;;;;;;;4984879;28;20540;-73
2023/09/20 12:25:11;;;;;;;2.20;1.23;;;;;;;;;;4991521;28;20084;-75
2023/09/20 12:27:37;;;;;;;3.67;1.50;;;;;;;;;;5001564;28;20050;-75
2023/09/20 12:30:04;;;;;;;1.73;1.13;;;;;;;;;;4966833;28;20510;-75
2023/09/20 12:32:29;;;;;;;2.35;1.00;;;;;;;;;;4985349;28;20533;-75
2023/09/20 12:34:55;;;;;;;1.75;1.30;;;;;;;;;;4985401;28;20046;-75
2023/09/20 12:37:20;;;;;;;1.17;1.10;;;;;;;;;;4999139;28;20034;-75
2023/09/20 12:39:47;;;;;;;1.38;1.27;;;;;;;;;;4992538;28;20031;-73
2023/09/20 12:42:12;;;;;;;1.40;1.30;;;;;;;;;;4984613;28;20186;-75
2023/09/20 12:44:37;;;;;;;1.60;1.10;;;;;;;;;;4988177;28;21013;-74
2023/09/20 12:47:03;;;;;;;1.75;1.33;;;;;;;;;;4991769;28;20042;-74
2023/09/20 12:49:28;;;;;;;1.98;1.40;;;;;;;;;;4994659;28;20031;-74
2023/09/20 12:51:54;;;;;;;1.75;1.30;;;;;;;;;;4996272;28;20035;-74
2023/09/20 12:54:19;;;;;;;1.33;1.15;;;;;;;;;;4985652;28;20539;-74
2023/09/20 12:56:44;;;;;;;1.30;1.20;;;;;;;;;;4984599;28;20031;-74
2023/09/20 12:59:12;;;;;;;2.38;1.30;;;;;;;;;;4983998;28;20060;-74
2023/09/20 13:01:38;;;;;;;3.08;1.63;;;;;;;;;;4983142;28;20038;-74
2023/09/20 13:04:04;;;;;;;1.45;1.20;;;;;;;;;;4992571;28;20038;-75
2023/09/20 13:06:32;;;;;;;2.35;1.08;;;;;;;;;;4991579;28;20122;-74
2023/09/20 13:08:57;;;;;;;1.40;1.30;;;;;;;;;;4991753;28;20026;-74
2023/09/20 13:11:23;;;;;;;2.33;1.27;;;;;;;;;;4990434;28;20488;-74
2023/09/20 13:13:49;;;;;;;2.05;1.23;;;;;;;;;;4978857;28;20438;-74
2023/09/20 13:16:15;;;;;;;1.00;0.90;;;;;;;;;;4983029;28;20040;-74
2023/09/20 13:18:41;;;;;;;1.35;1.20;;;;;;;;;;4994752;28;20349;-74
2023/09/20 13:21:07;;;;;;;1.60;1.23;;;;;;;;;;4981821;28;20022;-74
2023/09/20 13:23:32;;;;;;;6.25;1.30;;;;;;;;;;4984753;28;20083;-74
2023/09/20 13:26:00;;;;;;;2.47;1.20;;;;;;;;;;4966254;28;20038;-74
2023/09/20 13:28:25;;;;;;;1.80;1.30;;;;;;;;;;5000195;28;20303;-74
2023/09/20 13:30:51;;;;;;;1.52;1.25;;;;;;;;;;4985424;28;20042;-74
2023/09/20 13:33:17;;;;;;;2.58;1.10;;;;;;;;;;4984384;28;20105;-74
2023/09/20 13:35:42;;;;;;;1.85;1.23;;;;;;;;;;4993149;28;20056;-74
2023/09/20 13:38:09;;;;;;;1.30;1.20;;;;;;;;;;4986649;28;20736;-74
2023/09/20 13:40:36;;;;;;;1.42;1.13;;;;;;;;;;4983104;28;20038;-74
2023/09/20 13:43:01;;;;;;;5.47;1.50;;;;;;;;;;4988136;28;20080;-74
2023/09/20 13:45:26;;;;;;;1.30;1.20;;;;;;;;;;4993505;28;20051;-74
2023/09/20 13:47:53;;;;;;;1.88;1.30;;;;;;;;;;4999742;28;20080;-74
2023/09/20 13:50:19;;;;;;;1.52;1.42;;;;;;;;;;4997318;28;20033;-74
2023/09/20 13:52:45;;;;;;;1.20;1.10;;;;;;;;;;4987047;28;20054;-74
2023/09/20 13:55:13;;;;;;;1.45;1.35;;;;;;;;;;5002670;28;20088;-74
2023/09/20 13:57:39;;;;;;;1.60;1.30;;;;;;;;;;4983568;28;20034;-75
2023/09/20 14:00:14;;;;;;;1.10;1.00;;;;;;;;;;4986667;28;20030;-75
2023/09/20 14:02:40;;;;;;;1.20;1.10;;;;;;;;;;4973034;28;20363;-74
2023/09/20 14:05:16;;;;;;;1.23;1.20;;;;;;;;;;4969684;28;20458;-74
2023/09/20 14:07:49;;;;;;;1.42;1.30;;;;;;;;;;4985957;28;20034;-74
2023/09/20 14:10:17;;;;;;;1.33;1.23;;;;;;;;;;4993367;28;20409;-75
2023/09/20 14:12:43;;;;;;;3.15;1.45;;;;;;;;;;4987388;28;20649;-73
2023/09/20 14:15:11;;;;;;;1.73;1.30;;;;;;;;;;4988684;28;20030;-73
2023/09/20 14:17:36;;;;;;;5.10;1.40;;;;;;;;;;4987948;28;20391;-73
2023/09/20 14:20:09;;;;;;;1.75;1.10;;;;;;;;;;4995041;28;20089;-76
2023/09/20 14:22:35;;;;;;;1.30;1.20;;;;;;;;;;4985628;28;20038;-76
2023/09/20 14:25:00;;;;;;;1.42;1.33;;;;;;;;;;4988989;28;20038;-74
2023/09/20 14:27:25;;;;;;;1.00;1.00;;;;;;;;;;4987799;28;20050;-74
2023/09/20 14:29:51;;;;;;;1.90;1.38;;;;;;;;;;4997703;28;20398;-74
2023/09/20 14:32:16;;;;;;;2.65;1.10;;;;;;;;;;4986390;28;20026;-74
2023/09/20 14:34:41;;;;;;;1.42;1.33;;;;;;;;;;4992250;28;20035;-74
2023/09/20 14:37:06;;;;;;;1.92;1.48;;;;;;;;;;4986582;28;20125;-74
2023/09/20 14:39:32;;;;;;;1.38;1.27;;;;;;;;;;4995540;28;20041;-74
2023/09/20 14:41:58;;;;;;;1.50;1.17;;;;;;;;;;4987002;28;20022;-74
2023/09/20 14:44:25;;;;;;;7.10;1.30;;;;;;;;;;4985492;28;20137;-74
2023/09/20 14:46:50;;;;;;;2.45;1.30;;;;;;;;;;4967228;28;20625;-74
2023/09/20 14:49:15;;;;;;;3.45;1.48;;;;;;;;;;4986540;28;20034;-74
2023/09/20 14:51:40;;;;;;;1.85;1.70;;;;;;;;;;4985021;28;20030;-74
2023/09/20 14:54:06;;;;;;;2.63;1.20;;;;;;;;;;4992779;28;20030;-74
2023/09/20 14:56:31;;;;;;;2.13;1.33;;;;;;;;;;4988662;28;20057;-74
2023/09/20 14:58:57;;;;;;;2.10;1.52;;;;;;;;;;4992239;28;20042;-74
2023/09/20 15:01:22;;;;;;;1.60;1.50;;;;;;;;;;4988188;28;20498;-74
2023/09/20 15:03:47;;;;;;;1.30;1.30;;;;;;;;;;4987882;28;20065;-74
2023/09/20 15:06:20;;;;;;;1.83;1.30;;;;;;;;;;4987459;28;20027;-74
2023/09/20 15:08:48;;;;;;;1.20;1.20;;;;;;;;;;4986492;28;20434;-74
2023/09/20 15:11:13;;;;;;;1.63;1.40;;;;;;;;;;4990472;28;20042;-74
2023/09/20 15:13:40;;;;;;;1.88;1.40;;;;;;;;;;4989529;28;20041;-74
2023/09/20 15:16:16;;;;;;;3.30;1.42;;;;;;;;;;4995908;28;20031;-74
2023/09/20 15:18:42;;;;;;;2.67;1.42;;;;;;;;;;4994345;28;20157;-74
2023/09/20 15:21:09;;;;;;;2.58;1.48;;;;;;;;;;5009398;23;20109;-78